82OI weather

J-Em Farm Airport
Columbus, Ohio, United States

Public forecast

Using degrees Fahrenheit for public forecast. Weather courtesy of forecast.io.

METAR (pilot weather report)

Closest report is Union County Airport, 5.5 nm (10.2 km) NW. Retrieved 2019/05/19 21:36 UTC (16 minutes ago):

KMRT 192136Z AUTO 30012G16KT 1 3/4SM SCT010 BKN027 OVC035 17/16 A2987 RMK AO2 P0001 T01710156

TAF (pilot weather forecast)

Closest forecast is John Glenn Columbus International Airport, 19.9 nm (36.9 km) ESE. Retrieved 2019/05/19 18:42 UTC (3 hours ago):

TAF KCMH 191741Z 1918/2018 21021G38KT P6SM SCT050 BKN120 FM192200 21018G30KT 6SM -SHRA VCTS SCT020 OVC040CB TEMPO 1922/1924 3SM SHRA OVC020 FM200100 22014G24KT P6SM VCSH SCT020 BKN040 FM200600 23012G20KT P6SM SCT040 BKN080 FM201000 24010G18KT P6SM BKN015 FM201600 26012G20KT P6SM BKN035